sensor_id;sensor_type;location;lat;lon;timestamp;P1;durP1;ratioP1;P2;durP2;ratioP2
34072;SDS011;20346;52.702;16.886;2023-04-25T00:02:56;1.00;;;0.50;;
34072;SDS011;20346;52.702;16.886;2023-04-25T00:06:42;0.40;;;0.40;;
34072;SDS011;20346;52.702;16.886;2023-04-25T00:10:29;0.40;;;0.30;;
34072;SDS011;20346;52.702;16.886;2023-04-25T00:14:16;1.20;;;0.50;;
34072;SDS011;20346;52.702;16.886;2023-04-25T00:18:03;0.40;;;0.30;;
34072;SDS011;20346;52.702;16.886;2023-04-25T00:21:49;0.50;;;0.50;;
34072;SDS011;20346;52.702;16.886;2023-04-25T00:25:36;0.80;;;0.30;;
34072;SDS011;20346;52.702;16.886;2023-04-25T00:29:23;0.70;;;0.30;;
34072;SDS011;20346;52.702;16.886;2023-04-25T00:33:10;0.30;;;0.30;;
34072;SDS011;20346;52.702;16.886;2023-04-25T00:36:56;0.40;;;0.30;;
34072;SDS011;20346;52.702;16.886;2023-04-25T00:40:43;0.20;;;0.20;;
34072;SDS011;20346;52.702;16.886;2023-04-25T00:44:30;0.80;;;0.50;;
34072;SDS011;20346;52.702;16.886;2023-04-25T00:48:16;0.20;;;0.20;;
34072;SDS011;20346;52.702;16.886;2023-04-25T00:52:03;1.00;;;0.40;;
34072;SDS011;20346;52.702;16.886;2023-04-25T00:55:50;0.50;;;0.40;;
34072;SDS011;20346;52.702;16.886;2023-04-25T00:59:37;0.60;;;0.40;;
34072;SDS011;20346;52.702;16.886;2023-04-25T01:03:23;0.60;;;0.60;;
34072;SDS011;20346;52.702;16.886;2023-04-25T01:07:10;4.10;;;0.50;;
34072;SDS011;20346;52.702;16.886;2023-04-25T01:10:57;0.40;;;0.30;;
34072;SDS011;20346;52.702;16.886;2023-04-25T01:14:45;0.90;;;0.50;;
34072;SDS011;20346;52.702;16.886;2023-04-25T01:18:32;1.20;;;0.80;;
34072;SDS011;20346;52.702;16.886;2023-04-25T01:22:18;0.70;;;0.60;;
34072;SDS011;20346;52.702;16.886;2023-04-25T01:26:06;1.10;;;0.80;;
34072;SDS011;20346;52.702;16.886;2023-04-25T01:29:52;1.10;;;0.60;;
34072;SDS011;20346;52.702;16.886;2023-04-25T01:33:39;0.80;;;0.60;;
34072;SDS011;20346;52.702;16.886;2023-04-25T01:37:25;1.50;;;0.80;;
34072;SDS011;20346;52.702;16.886;2023-04-25T01:41:13;1.30;;;0.60;;
34072;SDS011;20346;52.702;16.886;2023-04-25T01:44:59;3.00;;;0.80;;
34072;SDS011;20346;52.702;16.886;2023-04-25T01:48:46;1.90;;;0.90;;
34072;SDS011;20346;52.702;16.886;2023-04-25T01:52:32;2.40;;;1.20;;
34072;SDS011;20346;52.702;16.886;2023-04-25T01:56:19;0.70;;;0.50;;
34072;SDS011;20346;52.702;16.886;2023-04-25T02:00:06;1.10;;;0.70;;
34072;SDS011;20346;52.702;16.886;2023-04-25T02:03:53;4.00;;;0.70;;
34072;SDS011;20346;52.702;16.886;2023-04-25T02:07:39;3.80;;;1.80;;
34072;SDS011;20346;52.702;16.886;2023-04-25T02:11:26;5.60;;;1.80;;
34072;SDS011;20346;52.702;16.886;2023-04-25T02:15:13;4.30;;;1.80;;
34072;SDS011;20346;52.702;16.886;2023-04-25T02:18:59;3.90;;;1.60;;
34072;SDS011;20346;52.702;16.886;2023-04-25T02:22:46;2.40;;;1.10;;
34072;SDS011;20346;52.702;16.886;2023-04-25T02:26:33;1.50;;;0.80;;
34072;SDS011;20346;52.702;16.886;2023-04-25T02:30:20;1.30;;;0.90;;
34072;SDS011;20346;52.702;16.886;2023-04-25T02:34:06;1.10;;;1.00;;
34072;SDS011;20346;52.702;16.886;2023-04-25T02:37:53;2.60;;;1.00;;
34072;SDS011;20346;52.702;16.886;2023-04-25T02:41:40;2.30;;;0.70;;
34072;SDS011;20346;52.702;16.886;2023-04-25T02:45:27;2.70;;;0.80;;
34072;SDS011;20346;52.702;16.886;2023-04-25T02:49:14;0.60;;;0.50;;
34072;SDS011;20346;52.702;16.886;2023-04-25T02:53:00;1.50;;;0.60;;
34072;SDS011;20346;52.702;16.886;2023-04-25T02:56:47;1.70;;;1.10;;
34072;SDS011;20346;52.702;16.886;2023-04-25T03:00:34;1.80;;;0.80;;
34072;SDS011;20346;52.702;16.886;2023-04-25T03:04:21;2.20;;;1.00;;
34072;SDS011;20346;52.702;16.886;2023-04-25T03:08:07;2.50;;;0.90;;
34072;SDS011;20346;52.702;16.886;2023-04-25T03:11:54;1.50;;;0.90;;
34072;SDS011;20346;52.702;16.886;2023-04-25T03:15:41;4.50;;;1.20;;
34072;SDS011;20346;52.702;16.886;2023-04-25T03:19:28;1.90;;;1.10;;
34072;SDS011;20346;52.702;16.886;2023-04-25T03:23:14;1.10;;;1.00;;
34072;SDS011;20346;52.702;16.886;2023-04-25T03:27:01;1.50;;;0.90;;
34072;SDS011;20346;52.702;16.886;2023-04-25T03:30:48;1.50;;;1.10;;
34072;SDS011;20346;52.702;16.886;2023-04-25T03:34:35;1.40;;;1.00;;
34072;SDS011;20346;52.702;16.886;2023-04-25T03:38:22;1.00;;;1.00;;
34072;SDS011;20346;52.702;16.886;2023-04-25T03:42:08;2.80;;;1.00;;
34072;SDS011;20346;52.702;16.886;2023-04-25T03:45:55;1.70;;;1.10;;
34072;SDS011;20346;52.702;16.886;2023-04-25T03:49:42;4.70;;;1.30;;
34072;SDS011;20346;52.702;16.886;2023-04-25T03:53:29;1.60;;;1.00;;
34072;SDS011;20346;52.702;16.886;2023-04-25T03:57:15;2.70;;;1.70;;
34072;SDS011;20346;52.702;16.886;2023-04-25T04:01:02;1.30;;;1.10;;
34072;SDS011;20346;52.702;16.886;2023-04-25T04:04:49;1.80;;;1.10;;
34072;SDS011;20346;52.702;16.886;2023-04-25T04:08:36;1.10;;;1.10;;
34072;SDS011;20346;52.702;16.886;2023-04-25T04:12:23;5.90;;;1.70;;
34072;SDS011;20346;52.702;16.886;2023-04-25T04:16:09;3.30;;;1.10;;
34072;SDS011;20346;52.702;16.886;2023-04-25T04:19:56;2.80;;;1.20;;
34072;SDS011;20346;52.702;16.886;2023-04-25T04:23:43;2.10;;;1.30;;
34072;SDS011;20346;52.702;16.886;2023-04-25T04:27:30;2.00;;;1.40;;
34072;SDS011;20346;52.702;16.886;2023-04-25T04:31:17;2.60;;;1.20;;
34072;SDS011;20346;52.702;16.886;2023-04-25T04:35:03;2.80;;;1.30;;
34072;SDS011;20346;52.702;16.886;2023-04-25T04:38:50;2.30;;;1.40;;
34072;SDS011;20346;52.702;16.886;2023-04-25T04:42:39;1.60;;;1.40;;
34072;SDS011;20346;52.702;16.886;2023-04-25T04:46:28;1.90;;;1.70;;
34072;SDS011;20346;52.702;16.886;2023-04-25T04:50:18;2.50;;;2.00;;
34072;SDS011;20346;52.702;16.886;2023-04-25T04:54:05;2.30;;;1.90;;
34072;SDS011;20346;52.702;16.886;2023-04-25T04:57:51;2.00;;;1.90;;
34072;SDS011;20346;52.702;16.886;2023-04-25T05:01:38;3.10;;;2.40;;
34072;SDS011;20346;52.702;16.886;2023-04-25T05:05:25;4.00;;;2.30;;
34072;SDS011;20346;52.702;16.886;2023-04-25T05:09:12;3.70;;;2.80;;
34072;SDS011;20346;52.702;16.886;2023-04-25T05:12:59;2.80;;;2.30;;
34072;SDS011;20346;52.702;16.886;2023-04-25T05:16:46;2.50;;;2.20;;
34072;SDS011;20346;52.702;16.886;2023-04-25T05:20:32;2.60;;;2.40;;
34072;SDS011;20346;52.702;16.886;2023-04-25T05:24:19;3.00;;;2.10;;
34072;SDS011;20346;52.702;16.886;2023-04-25T05:28:06;4.40;;;2.70;;
34072;SDS011;20346;52.702;16.886;2023-04-25T05:31:53;7.40;;;2.60;;
34072;SDS011;20346;52.702;16.886;2023-04-25T05:35:39;5.00;;;2.40;;
34072;SDS011;20346;52.702;16.886;2023-04-25T05:39:26;2.00;;;1.70;;
34072;SDS011;20346;52.702;16.886;2023-04-25T05:43:13;2.50;;;2.30;;
34072;SDS011;20346;52.702;16.886;2023-04-25T05:47:00;2.30;;;2.10;;
34072;SDS011;20346;52.702;16.886;2023-04-25T05:50:46;4.90;;;2.40;;
34072;SDS011;20346;52.702;16.886;2023-04-25T05:54:33;5.30;;;1.90;;
34072;SDS011;20346;52.702;16.886;2023-04-25T05:58:20;3.40;;;2.60;;
34072;SDS011;20346;52.702;16.886;2023-04-25T06:02:07;2.10;;;1.90;;
34072;SDS011;20346;52.702;16.886;2023-04-25T06:05:54;3.70;;;2.70;;
34072;SDS011;20346;52.702;16.886;2023-04-25T06:09:40;2.90;;;2.00;;
34072;SDS011;20346;52.702;16.886;2023-04-25T06:13:27;3.80;;;1.90;;
34072;SDS011;20346;52.702;16.886;2023-04-25T06:17:14;2.50;;;2.00;;
34072;SDS011;20346;52.702;16.886;2023-04-25T06:21:01;3.40;;;1.70;;
34072;SDS011;20346;52.702;16.886;2023-04-25T06:24:48;3.70;;;2.10;;
34072;SDS011;20346;52.702;16.886;2023-04-25T06:28:34;3.20;;;2.00;;
34072;SDS011;20346;52.702;16.886;2023-04-25T06:32:21;4.40;;;2.30;;
34072;SDS011;20346;52.702;16.886;2023-04-25T06:36:08;4.60;;;2.20;;
34072;SDS011;20346;52.702;16.886;2023-04-25T06:39:55;1.80;;;1.60;;
34072;SDS011;20346;52.702;16.886;2023-04-25T06:43:42;2.70;;;1.70;;
34072;SDS011;20346;52.702;16.886;2023-04-25T06:47:28;3.90;;;1.90;;
34072;SDS011;20346;52.702;16.886;2023-04-25T06:51:15;4.50;;;2.10;;
34072;SDS011;20346;52.702;16.886;2023-04-25T06:55:02;3.30;;;1.90;;
34072;SDS011;20346;52.702;16.886;2023-04-25T06:58:49;4.80;;;2.20;;
34072;SDS011;20346;52.702;16.886;2023-04-25T07:02:35;2.60;;;2.10;;
34072;SDS011;20346;52.702;16.886;2023-04-25T07:06:22;4.70;;;2.30;;
34072;SDS011;20346;52.702;16.886;2023-04-25T07:10:09;3.30;;;2.10;;
34072;SDS011;20346;52.702;16.886;2023-04-25T07:13:56;3.70;;;2.10;;
34072;SDS011;20346;52.702;16.886;2023-04-25T07:17:43;3.50;;;1.90;;
34072;SDS011;20346;52.702;16.886;2023-04-25T07:21:29;6.50;;;2.00;;
34072;SDS011;20346;52.702;16.886;2023-04-25T07:25:16;7.00;;;2.10;;
34072;SDS011;20346;52.702;16.886;2023-04-25T07:29:02;6.00;;;2.50;;
34072;SDS011;20346;52.702;16.886;2023-04-25T07:32:49;3.10;;;2.30;;
34072;SDS011;20346;52.702;16.886;2023-04-25T07:36:36;4.80;;;1.90;;
34072;SDS011;20346;52.702;16.886;2023-04-25T07:40:22;3.00;;;2.20;;
34072;SDS011;20346;52.702;16.886;2023-04-25T07:44:09;4.20;;;2.10;;
34072;SDS011;20346;52.702;16.886;2023-04-25T07:47:56;5.00;;;2.10;;
34072;SDS011;20346;52.702;16.886;2023-04-25T07:51:43;4.30;;;2.10;;
34072;SDS011;20346;52.702;16.886;2023-04-25T07:55:29;5.30;;;2.50;;
34072;SDS011;20346;52.702;16.886;2023-04-25T07:59:16;5.30;;;2.40;;
34072;SDS011;20346;52.702;16.886;2023-04-25T08:03:03;9.00;;;4.00;;
34072;SDS011;20346;52.702;16.886;2023-04-25T08:06:50;6.80;;;2.40;;
34072;SDS011;20346;52.702;16.886;2023-04-25T08:10:36;8.40;;;2.60;;
34072;SDS011;20346;52.702;16.886;2023-04-25T08:14:23;2.80;;;1.60;;
34072;SDS011;20346;52.702;16.886;2023-04-25T08:18:10;3.40;;;1.80;;
34072;SDS011;20346;52.702;16.886;2023-04-25T08:21:57;5.20;;;2.50;;
34072;SDS011;20346;52.702;16.886;2023-04-25T08:25:44;4.30;;;2.40;;
34072;SDS011;20346;52.702;16.886;2023-04-25T08:29:30;3.10;;;1.90;;
34072;SDS011;20346;52.702;16.886;2023-04-25T08:33:17;3.50;;;2.10;;
34072;SDS011;20346;52.702;16.886;2023-04-25T08:37:04;3.60;;;1.80;;
34072;SDS011;20346;52.702;16.886;2023-04-25T08:40:51;8.10;;;2.40;;
34072;SDS011;20346;52.702;16.886;2023-04-25T08:44:37;3.10;;;1.80;;
34072;SDS011;20346;52.702;16.886;2023-04-25T08:48:24;3.70;;;2.10;;
34072;SDS011;20346;52.702;16.886;2023-04-25T08:52:11;3.60;;;2.10;;
34072;SDS011;20346;52.702;16.886;2023-04-25T08:55:59;3.00;;;2.10;;
34072;SDS011;20346;52.702;16.886;2023-04-25T08:59:45;6.00;;;2.50;;
34072;SDS011;20346;52.702;16.886;2023-04-25T09:03:32;3.60;;;2.70;;
34072;SDS011;20346;52.702;16.886;2023-04-25T09:07:18;4.60;;;1.90;;
34072;SDS011;20346;52.702;16.886;2023-04-25T09:11:06;3.50;;;1.80;;
34072;SDS011;20346;52.702;16.886;2023-04-25T09:18:48;3.90;;;1.90;;
34072;SDS011;20346;52.702;16.886;2023-04-25T09:22:35;3.10;;;1.70;;
34072;SDS011;20346;52.702;16.886;2023-04-25T09:26:21;2.30;;;1.90;;
34072;SDS011;20346;52.702;16.886;2023-04-25T09:30:08;4.40;;;1.90;;
34072;SDS011;20346;52.702;16.886;2023-04-25T09:34:00;3.50;;;2.00;;
34072;SDS011;20346;52.702;16.886;2023-04-25T09:37:47;3.40;;;1.80;;
34072;SDS011;20346;52.702;16.886;2023-04-25T09:41:37;2.40;;;1.80;;
34072;SDS011;20346;52.702;16.886;2023-04-25T09:45:20;3.90;;;1.80;;
34072;SDS011;20346;52.702;16.886;2023-04-25T09:49:07;2.40;;;1.50;;
34072;SDS011;20346;52.702;16.886;2023-04-25T09:53:11;3.90;;;1.40;;
34072;SDS011;20346;52.702;16.886;2023-04-25T09:56:43;4.50;;;1.90;;
34072;SDS011;20346;52.702;16.886;2023-04-25T10:00:33;3.20;;;1.60;;
34072;SDS011;20346;52.702;16.886;2023-04-25T10:04:21;5.40;;;1.90;;
34072;SDS011;20346;52.702;16.886;2023-04-25T10:08:06;3.40;;;2.00;;
34072;SDS011;20346;52.702;16.886;2023-04-25T10:11:56;6.30;;;2.00;;
34072;SDS011;20346;52.702;16.886;2023-04-25T10:15:42;2.50;;;1.60;;
34072;SDS011;20346;52.702;16.886;2023-04-25T10:19:29;4.30;;;2.20;;
34072;SDS011;20346;52.702;16.886;2023-04-25T10:23:16;4.80;;;1.90;;
34072;SDS011;20346;52.702;16.886;2023-04-25T10:27:03;3.00;;;1.90;;
34072;SDS011;20346;52.702;16.886;2023-04-25T10:31:07;2.50;;;1.30;;
34072;SDS011;20346;52.702;16.886;2023-04-25T10:34:48;3.00;;;1.80;;
34072;SDS011;20346;52.702;16.886;2023-04-25T10:38:44;2.80;;;1.50;;
34072;SDS011;20346;52.702;16.886;2023-04-25T10:42:30;3.40;;;1.90;;
34072;SDS011;20346;52.702;16.886;2023-04-25T10:46:27;3.30;;;1.70;;
34072;SDS011;20346;52.702;16.886;2023-04-25T10:50:15;3.40;;;2.00;;
34072;SDS011;20346;52.702;16.886;2023-04-25T10:54:06;2.90;;;1.70;;
34072;SDS011;20346;52.702;16.886;2023-04-25T10:57:52;4.20;;;2.10;;
34072;SDS011;20346;52.702;16.886;2023-04-25T11:01:45;7.10;;;2.40;;
34072;SDS011;20346;52.702;16.886;2023-04-25T11:05:32;6.40;;;2.50;;
34072;SDS011;20346;52.702;16.886;2023-04-25T11:09:17;3.90;;;2.00;;
34072;SDS011;20346;52.702;16.886;2023-04-25T11:13:04;2.90;;;1.70;;
34072;SDS011;20346;52.702;16.886;2023-04-25T11:16:57;2.80;;;2.20;;
34072;SDS011;20346;52.702;16.886;2023-04-25T11:20:43;3.70;;;1.60;;
34072;SDS011;20346;52.702;16.886;2023-04-25T11:24:31;2.40;;;1.70;;
34072;SDS011;20346;52.702;16.886;2023-04-25T11:28:20;4.30;;;1.40;;
34072;SDS011;20346;52.702;16.886;2023-04-25T11:32:04;4.20;;;1.50;;
34072;SDS011;20346;52.702;16.886;2023-04-25T11:35:53;2.50;;;1.40;;
34072;SDS011;20346;52.702;16.886;2023-04-25T11:39:37;4.00;;;1.20;;
34072;SDS011;20346;52.702;16.886;2023-04-25T11:43:25;2.00;;;1.40;;
34072;SDS011;20346;52.702;16.886;2023-04-25T11:47:11;4.30;;;1.40;;
34072;SDS011;20346;52.702;16.886;2023-04-25T11:50:59;3.30;;;1.10;;
34072;SDS011;20346;52.702;16.886;2023-04-25T11:54:45;2.30;;;1.10;;
34072;SDS011;20346;52.702;16.886;2023-04-25T11:58:53;1.20;;;1.10;;
34072;SDS011;20346;52.702;16.886;2023-04-25T12:02:27;2.70;;;1.40;;
34072;SDS011;20346;52.702;16.886;2023-04-25T12:06:16;2.70;;;1.20;;
34072;SDS011;20346;52.702;16.886;2023-04-25T12:10:04;2.40;;;1.70;;
34072;SDS011;20346;52.702;16.886;2023-04-25T12:13:53;3.70;;;1.70;;
34072;SDS011;20346;52.702;16.886;2023-04-25T12:17:52;3.30;;;1.90;;
34072;SDS011;20346;52.702;16.886;2023-04-25T12:21:39;5.20;;;2.20;;
34072;SDS011;20346;52.702;16.886;2023-04-25T12:25:35;5.30;;;2.10;;
34072;SDS011;20346;52.702;16.886;2023-04-25T12:29:24;3.30;;;1.60;;
34072;SDS011;20346;52.702;16.886;2023-04-25T12:33:16;2.30;;;1.50;;
34072;SDS011;20346;52.702;16.886;2023-04-25T12:37:03;2.40;;;1.40;;
34072;SDS011;20346;52.702;16.886;2023-04-25T12:40:50;4.00;;;1.50;;
34072;SDS011;20346;52.702;16.886;2023-04-25T12:44:37;4.10;;;1.50;;
34072;SDS011;20346;52.702;16.886;2023-04-25T12:48:26;1.90;;;1.20;;
34072;SDS011;20346;52.702;16.886;2023-04-25T12:52:10;2.60;;;1.40;;
34072;SDS011;20346;52.702;16.886;2023-04-25T12:55:57;2.00;;;1.30;;
34072;SDS011;20346;52.702;16.886;2023-04-25T12:59:44;1.90;;;1.20;;
34072;SDS011;20346;52.702;16.886;2023-04-25T13:03:31;2.40;;;1.10;;
34072;SDS011;20346;52.702;16.886;2023-04-25T13:07:18;1.20;;;1.00;;
34072;SDS011;20346;52.702;16.886;2023-04-25T13:11:05;2.40;;;1.10;;
34072;SDS011;20346;52.702;16.886;2023-04-25T13:14:51;1.60;;;1.10;;
34072;SDS011;20346;52.702;16.886;2023-04-25T13:18:38;1.60;;;1.40;;
34072;SDS011;20346;52.702;16.886;2023-04-25T13:22:25;0.40;;;0.40;;
34072;SDS011;20346;52.702;16.886;2023-04-25T13:26:12;1.10;;;0.80;;
34072;SDS011;20346;52.702;16.886;2023-04-25T13:30:02;0.90;;;0.40;;
34072;SDS011;20346;52.702;16.886;2023-04-25T13:33:45;0.30;;;0.30;;
34072;SDS011;20346;52.702;16.886;2023-04-25T13:37:32;0.50;;;0.50;;
34072;SDS011;20346;52.702;16.886;2023-04-25T13:41:19;0.50;;;0.40;;
34072;SDS011;20346;52.702;16.886;2023-04-25T13:45:06;1.10;;;0.30;;
34072;SDS011;20346;52.702;16.886;2023-04-25T13:48:52;1.10;;;0.60;;
34072;SDS011;20346;52.702;16.886;2023-04-25T13:52:39;2.60;;;0.40;;
34072;SDS011;20346;52.702;16.886;2023-04-25T13:56:26;0.60;;;0.50;;
34072;SDS011;20346;52.702;16.886;2023-04-25T14:00:13;1.40;;;0.60;;
34072;SDS011;20346;52.702;16.886;2023-04-25T14:03:59;1.10;;;0.80;;
34072;SDS011;20346;52.702;16.886;2023-04-25T14:07:46;0.50;;;0.50;;
34072;SDS011;20346;52.702;16.886;2023-04-25T14:11:33;0.90;;;0.70;;
34072;SDS011;20346;52.702;16.886;2023-04-25T14:15:20;0.80;;;0.70;;
34072;SDS011;20346;52.702;16.886;2023-04-25T14:19:07;1.70;;;1.20;;
34072;SDS011;20346;52.702;16.886;2023-04-25T14:22:53;3.70;;;1.40;;
34072;SDS011;20346;52.702;16.886;2023-04-25T14:26:40;3.20;;;1.30;;
34072;SDS011;20346;52.702;16.886;2023-04-25T14:30:27;2.60;;;1.30;;
34072;SDS011;20346;52.702;16.886;2023-04-25T14:34:14;4.60;;;1.40;;
34072;SDS011;20346;52.702;16.886;2023-04-25T14:38:01;2.50;;;1.60;;
34072;SDS011;20346;52.702;16.886;2023-04-25T14:41:47;2.00;;;1.30;;
34072;SDS011;20346;52.702;16.886;2023-04-25T14:45:34;1.90;;;1.10;;
34072;SDS011;20346;52.702;16.886;2023-04-25T14:49:21;3.20;;;1.40;;
34072;SDS011;20346;52.702;16.886;2023-04-25T14:53:07;1.70;;;1.30;;
34072;SDS011;20346;52.702;16.886;2023-04-25T14:56:54;2.10;;;1.70;;
34072;SDS011;20346;52.702;16.886;2023-04-25T15:00:41;2.30;;;1.20;;
34072;SDS011;20346;52.702;16.886;2023-04-25T15:04:28;3.00;;;1.80;;
34072;SDS011;20346;52.702;16.886;2023-04-25T15:08:15;3.30;;;1.30;;
34072;SDS011;20346;52.702;16.886;2023-04-25T15:10:48;2.70;;;1.40;;
34072;SDS011;20346;52.702;16.886;2023-04-25T15:14:37;4.50;;;1.80;;
34072;SDS011;20346;52.702;16.886;2023-04-25T15:18:24;5.20;;;2.50;;
34072;SDS011;20346;52.702;16.886;2023-04-25T15:22:14;3.40;;;2.00;;
34072;SDS011;20346;52.702;16.886;2023-04-25T15:26:00;4.90;;;1.90;;
34072;SDS011;20346;52.702;16.886;2023-04-25T15:29:47;6.10;;;3.20;;
34072;SDS011;20346;52.702;16.886;2023-04-25T15:33:34;3.70;;;2.20;;
34072;SDS011;20346;52.702;16.886;2023-04-25T15:37:21;10.30;;;3.00;;
34072;SDS011;20346;52.702;16.886;2023-04-25T15:41:07;12.90;;;3.00;;
34072;SDS011;20346;52.702;16.886;2023-04-25T15:44:53;8.30;;;2.50;;
34072;SDS011;20346;52.702;16.886;2023-04-25T15:48:40;9.40;;;2.30;;
34072;SDS011;20346;52.702;16.886;2023-04-25T15:52:27;9.60;;;2.60;;
34072;SDS011;20346;52.702;16.886;2023-04-25T15:56:14;14.30;;;2.20;;
34072;SDS011;20346;52.702;16.886;2023-04-25T16:00:01;12.20;;;2.80;;
34072;SDS011;20346;52.702;16.886;2023-04-25T16:03:47;8.80;;;3.40;;
34072;SDS011;20346;52.702;16.886;2023-04-25T16:07:34;10.00;;;2.40;;
34072;SDS011;20346;52.702;16.886;2023-04-25T16:11:20;7.30;;;2.10;;
34072;SDS011;20346;52.702;16.886;2023-04-25T16:15:07;10.00;;;2.00;;
34072;SDS011;20346;52.702;16.886;2023-04-25T16:18:55;8.00;;;2.30;;
34072;SDS011;20346;52.702;16.886;2023-04-25T16:21:29;6.30;;;2.00;;
34072;SDS011;20346;52.702;16.886;2023-04-25T16:24:02;8.70;;;2.50;;
34072;SDS011;20346;52.702;16.886;2023-04-25T16:26:38;8.60;;;2.30;;
34072;SDS011;20346;52.702;16.886;2023-04-25T16:29:12;11.10;;;2.50;;
34072;SDS011;20346;52.702;16.886;2023-04-25T16:31:47;6.50;;;2.40;;
34072;SDS011;20346;52.702;16.886;2023-04-25T16:34:20;9.30;;;2.30;;
34072;SDS011;20346;52.702;16.886;2023-04-25T16:36:54;10.40;;;2.50;;
34072;SDS011;20346;52.702;16.886;2023-04-25T16:39:27;8.80;;;2.00;;
34072;SDS011;20346;52.702;16.886;2023-04-25T16:42:09;8.10;;;2.40;;
34072;SDS011;20346;52.702;16.886;2023-04-25T17:01:27;13.60;;;2.40;;
34072;SDS011;20346;52.702;16.886;2023-04-25T17:04:00;6.30;;;2.40;;
34072;SDS011;20346;52.702;16.886;2023-04-25T17:09:22;7.90;;;2.40;;
34072;SDS011;20346;52.702;16.886;2023-04-25T17:11:55;6.70;;;2.00;;
34072;SDS011;20346;52.702;16.886;2023-04-25T17:14:28;5.20;;;2.00;;
34072;SDS011;20346;52.702;16.886;2023-04-25T17:17:02;7.20;;;1.90;;
34072;SDS011;20346;52.702;16.886;2023-04-25T17:19:35;5.20;;;2.30;;
34072;SDS011;20346;52.702;16.886;2023-04-25T17:22:09;6.10;;;1.90;;
34072;SDS011;20346;52.702;16.886;2023-04-25T17:24:42;7.90;;;1.90;;
34072;SDS011;20346;52.702;16.886;2023-04-25T17:30:04;5.80;;;1.80;;
34072;SDS011;20346;52.702;16.886;2023-04-25T17:32:37;8.70;;;1.80;;
34072;SDS011;20346;52.702;16.886;2023-04-25T17:37:59;6.40;;;1.50;;
34072;SDS011;20346;52.702;16.886;2023-04-25T17:40:33;5.50;;;2.20;;
34072;SDS011;20346;52.702;16.886;2023-04-25T17:43:08;4.50;;;2.00;;
34072;SDS011;20346;52.702;16.886;2023-04-25T17:45:41;6.60;;;1.60;;
34072;SDS011;20346;52.702;16.886;2023-04-25T17:48:15;7.60;;;1.90;;
34072;SDS011;20346;52.702;16.886;2023-04-25T17:53:36;7.10;;;1.90;;
34072;SDS011;20346;52.702;16.886;2023-04-25T17:56:10;7.00;;;1.70;;
34072;SDS011;20346;52.702;16.886;2023-04-25T18:01:34;6.80;;;1.80;;
34072;SDS011;20346;52.702;16.886;2023-04-25T18:04:08;5.50;;;2.50;;
34072;SDS011;20346;52.702;16.886;2023-04-25T18:20:37;7.70;;;2.00;;
34072;SDS011;20346;52.702;16.886;2023-04-25T18:23:11;9.30;;;1.70;;
34072;SDS011;20346;52.702;16.886;2023-04-25T18:25:45;9.80;;;2.00;;
34072;SDS011;20346;52.702;16.886;2023-04-25T18:28:18;7.30;;;1.70;;
34072;SDS011;20346;52.702;16.886;2023-04-25T18:33:41;9.30;;;1.80;;
34072;SDS011;20346;52.702;16.886;2023-04-25T18:36:26;5.90;;;1.80;;
34072;SDS011;20346;52.702;16.886;2023-04-25T18:41:50;6.50;;;1.60;;
34072;SDS011;20346;52.702;16.886;2023-04-25T18:44:24;3.60;;;1.60;;
34072;SDS011;20346;52.702;16.886;2023-04-25T18:46:57;7.90;;;2.00;;
34072;SDS011;20346;52.702;16.886;2023-04-25T18:49:32;7.70;;;2.10;;
34072;SDS011;20346;52.702;16.886;2023-04-25T18:54:56;10.50;;;2.50;;
34072;SDS011;20346;52.702;16.886;2023-04-25T18:57:31;3.80;;;1.80;;
34072;SDS011;20346;52.702;16.886;2023-04-25T19:22:29;6.20;;;2.40;;
34072;SDS011;20346;52.702;16.886;2023-04-25T19:28:00;20.90;;;5.80;;
34072;SDS011;20346;52.702;16.886;2023-04-25T19:30:39;27.20;;;7.10;;
34072;SDS011;20346;52.702;16.886;2023-04-25T19:33:16;18.30;;;5.80;;
34072;SDS011;20346;52.702;16.886;2023-04-25T20:06:36;16.60;;;4.90;;
34072;SDS011;20346;52.702;16.886;2023-04-25T20:09:09;18.20;;;5.50;;
34072;SDS011;20346;52.702;16.886;2023-04-25T20:11:42;14.60;;;4.30;;
34072;SDS011;20346;52.702;16.886;2023-04-25T20:14:17;7.00;;;2.90;;
34072;SDS011;20346;52.702;16.886;2023-04-25T20:16:51;9.90;;;4.10;;
34072;SDS011;20346;52.702;16.886;2023-04-25T20:19:26;12.50;;;4.40;;
34072;SDS011;20346;52.702;16.886;2023-04-25T20:22:00;11.10;;;4.30;;
34072;SDS011;20346;52.702;16.886;2023-04-25T20:24:33;14.40;;;3.90;;
34072;SDS011;20346;52.702;16.886;2023-04-25T20:27:07;11.80;;;3.00;;
34072;SDS011;20346;52.702;16.886;2023-04-25T20:29:40;11.40;;;3.50;;
34072;SDS011;20346;52.702;16.886;2023-04-25T20:32:14;9.80;;;3.00;;
34072;SDS011;20346;52.702;16.886;2023-04-25T20:34:53;14.10;;;3.60;;
34072;SDS011;20346;52.702;16.886;2023-04-25T20:37:27;11.90;;;3.60;;
34072;SDS011;20346;52.702;16.886;2023-04-25T20:45:39;13.90;;;5.10;;
34072;SDS011;20346;52.702;16.886;2023-04-25T20:48:16;22.40;;;6.90;;
34072;SDS011;20346;52.702;16.886;2023-04-25T20:50:53;27.40;;;7.80;;
34072;SDS011;20346;52.702;16.886;2023-04-25T20:53:26;26.20;;;7.60;;
34072;SDS011;20346;52.702;16.886;2023-04-25T20:56:01;23.50;;;7.50;;
34072;SDS011;20346;52.702;16.886;2023-04-25T20:58:37;20.10;;;5.30;;
34072;SDS011;20346;52.702;16.886;2023-04-25T21:03:56;12.50;;;5.00;;
34072;SDS011;20346;52.702;16.886;2023-04-25T21:06:35;17.90;;;5.00;;
34072;SDS011;20346;52.702;16.886;2023-04-25T21:09:09;15.50;;;4.70;;
34072;SDS011;20346;52.702;16.886;2023-04-25T21:11:44;10.50;;;4.00;;
34072;SDS011;20346;52.702;16.886;2023-04-25T21:14:17;13.20;;;4.10;;
34072;SDS011;20346;52.702;16.886;2023-04-25T21:16:57;12.80;;;4.10;;
34072;SDS011;20346;52.702;16.886;2023-04-25T21:19:32;13.20;;;3.80;;
34072;SDS011;20346;52.702;16.886;2023-04-25T21:22:05;7.90;;;3.10;;
34072;SDS011;20346;52.702;16.886;2023-04-25T21:24:40;9.60;;;2.90;;
34072;SDS011;20346;52.702;16.886;2023-04-25T21:27:14;11.80;;;3.00;;
34072;SDS011;20346;52.702;16.886;2023-04-25T21:29:51;7.40;;;3.00;;
34072;SDS011;20346;52.702;16.886;2023-04-25T21:32:25;8.60;;;2.80;;
34072;SDS011;20346;52.702;16.886;2023-04-25T21:34:59;8.30;;;2.70;;
34072;SDS011;20346;52.702;16.886;2023-04-25T21:37:34;4.80;;;2.70;;
34072;SDS011;20346;52.702;16.886;2023-04-25T21:40:08;8.40;;;2.40;;
34072;SDS011;20346;52.702;16.886;2023-04-25T21:42:42;4.30;;;2.20;;
34072;SDS011;20346;52.702;16.886;2023-04-25T21:45:16;9.10;;;2.50;;
34072;SDS011;20346;52.702;16.886;2023-04-25T21:47:49;9.80;;;2.40;;
34072;SDS011;20346;52.702;16.886;2023-04-25T21:50:32;7.50;;;2.60;;
34072;SDS011;20346;52.702;16.886;2023-04-25T21:53:05;4.90;;;1.70;;
34072;SDS011;20346;52.702;16.886;2023-04-25T21:55:38;6.90;;;2.00;;
34072;SDS011;20346;52.702;16.886;2023-04-25T21:58:12;4.10;;;1.90;;
34072;SDS011;20346;52.702;16.886;2023-04-25T22:00:45;5.60;;;2.10;;
34072;SDS011;20346;52.702;16.886;2023-04-25T22:03:19;5.00;;;2.10;;
34072;SDS011;20346;52.702;16.886;2023-04-25T22:05:55;5.00;;;2.10;;
34072;SDS011;20346;52.702;16.886;2023-04-25T22:08:29;5.90;;;1.90;;
34072;SDS011;20346;52.702;16.886;2023-04-25T22:11:04;8.30;;;1.90;;
34072;SDS011;20346;52.702;16.886;2023-04-25T22:13:37;3.20;;;1.70;;
34072;SDS011;20346;52.702;16.886;2023-04-25T22:16:11;3.40;;;1.60;;
34072;SDS011;20346;52.702;16.886;2023-04-25T22:18:45;7.60;;;1.80;;
34072;SDS011;20346;52.702;16.886;2023-04-25T22:21:18;6.10;;;2.00;;
34072;SDS011;20346;52.702;16.886;2023-04-25T22:23:52;4.80;;;1.90;;
34072;SDS011;20346;52.702;16.886;2023-04-25T22:26:25;2.90;;;1.60;;
34072;SDS011;20346;52.702;16.886;2023-04-25T22:29:21;7.10;;;2.10;;